Terminal Aerodrome Forecast
Issued by NWS

Home | Current Version | Previous Version | Text Only | Print | Product List | Glossary On
Versions: 1 2 3 4 5 6 7 8 9 10 11 12 13 14 15
159
FTUS43 KGRB 292322
TAFMTW
TAF
KMTW 292322Z 3000/3024 07007KT P6SM FEW040
     FM300700 04005KT P6SM SCT035 SCT050
     FM301500 06010G16KT P6SM SCT030 BKN200
     FM302100 07012G20KT P6SM SCT020 BKN030=

USA.gov is the U.S. government's official web portal to all federal, state and local government web resources and services.